Time,TemperatureF,DewpointF,PressureIn,WindDirection,WindDirectionDegrees,WindSpeedMPH,WindSpeedGustMPH,Humidity,HourlyPrecipIn,Conditions,Clouds,dailyrainin,SoftwareType,DateUTC
2013-05-19 00:05:00,51.2,40.6,29.93,WNW,282,0.0,0.0,67,0.00,,,0.00,Wunderground v.1.15,2013-05-19 04:05:00,
2013-05-19 00:10:00,51.4,40.8,29.93,WNW,282,0.0,0.0,67,0.00,,,0.00,Wunderground v.1.15,2013-05-19 04:10:00,
2013-05-19 00:15:00,51.6,41.4,29.93,NNW,339,0.0,1.0,68,0.00,,,0.00,Wunderground v.1.15,2013-05-19 04:15:00,
2013-05-19 00:20:00,51.7,41.1,29.93,NNW,339,0.0,1.0,67,0.00,,,0.00,Wunderground v.1.15,2013-05-19 04:20:00,
2013-05-19 00:35:00,52.1,42.2,29.93,SW,225,0.0,0.0,69,0.00,,,0.00,Wunderground v.1.15,2013-05-19 04:35:00,
2013-05-19 00:45:00,51.9,42.4,29.93,SW,226,1.0,2.0,70,0.00,,,0.00,Wunderground v.1.15,2013-05-19 04:45:00,
2013-05-19 00:50:00,52.1,42.6,29.93,SW,225,1.0,2.0,70,0.00,,,0.00,Wunderground v.1.15,2013-05-19 04:50:00,
2013-05-19 00:55:00,52.2,42.7,29.93,SW,225,1.0,1.0,70,0.00,,,0.00,Wunderground v.1.15,2013-05-19 04:55:00,
2013-05-19 01:05:00,51.6,42.9,29.93,SW,225,0.0,1.0,72,0.00,,,0.00,Wunderground v.1.15,2013-05-19 05:05:00,
2013-05-19 01:10:00,51.2,42.5,29.93,SW,225,0.0,1.0,72,0.00,,,0.00,Wunderground v.1.15,2013-05-19 05:10:00,
2013-05-19 01:25:00,50.9,42.6,29.93,SW,225,0.0,0.0,73,0.00,,,0.00,Wunderground v.1.15,2013-05-19 05:25:00,
2013-05-19 01:35:00,50.7,42.7,29.93,SW,225,0.0,0.0,74,0.00,,,0.00,Wunderground v.1.15,2013-05-19 05:35:00,
2013-05-19 01:45:00,50.9,42.6,29.93,SW,221,2.0,2.0,73,0.00,,,0.00,Wunderground v.1.15,2013-05-19 05:45:00,
2013-05-19 01:50:00,50.9,42.6,29.93,SSW,213,2.0,2.0,73,0.00,,,0.00,Wunderground v.1.15,2013-05-19 05:50:00,
2013-05-19 02:00:00,50.2,42.2,29.93,SSW,213,0.0,0.0,74,0.00,,,0.00,Wunderground v.1.15,2013-05-19 06:00:00,
2013-05-19 02:20:00,49.3,42.4,29.93,SW,217,1.0,1.0,77,0.00,,,0.00,Wunderground v.1.15,2013-05-19 06:20:00,
2013-05-19 02:25:00,49.2,42.3,29.93,SW,218,1.0,1.0,77,0.00,,,0.00,Wunderground v.1.15,2013-05-19 06:25:00,
2013-05-19 02:35:00,49.2,42.3,29.93,SW,218,0.0,0.0,77,0.00,,,0.00,Wunderground v.1.15,2013-05-19 06:35:00,
2013-05-19 02:45:00,48.5,42.0,29.93,SW,223,0.0,1.0,78,0.00,,,0.00,Wunderground v.1.15,2013-05-19 06:45:00,
2013-05-19 02:55:00,48.1,42.2,29.94,SW,223,0.0,0.0,80,0.00,,,0.00,Wunderground v.1.15,2013-05-19 06:55:00,
2013-05-19 03:05:00,47.8,41.9,29.94,SW,223,0.0,0.0,80,0.00,,,0.00,Wunderground v.1.15,2013-05-19 07:05:00,
2013-05-19 03:25:00,47.4,42.2,29.94,SW,223,0.0,0.0,82,0.00,,,0.00,Wunderground v.1.15,2013-05-19 07:25:00,
2013-05-19 03:30:00,47.1,41.9,29.94,SW,223,0.0,0.0,82,0.00,,,0.00,Wunderground v.1.15,2013-05-19 07:30:00,
2013-05-19 03:40:00,46.5,41.9,29.94,NNW,346,0.0,0.0,84,0.00,,,0.00,Wunderground v.1.15,2013-05-19 07:40:00,
2013-05-19 03:45:00,46.4,41.8,29.94,NNW,346,0.0,0.0,84,0.00,,,0.00,Wunderground v.1.15,2013-05-19 07:45:00,
2013-05-19 03:50:00,46.4,41.8,29.95,NNW,346,0.0,1.0,84,0.00,,,0.00,Wunderground v.1.15,2013-05-19 07:50:00,
2013-05-19 03:55:00,46.3,41.7,29.95,WSW,246,0.0,1.0,84,0.00,,,0.00,Wunderground v.1.15,2013-05-19 07:55:00,
2013-05-19 04:10:00,46.0,41.7,29.96,WSW,246,0.0,0.0,85,0.00,,,0.00,Wunderground v.1.15,2013-05-19 08:10:00,
2013-05-19 04:15:00,46.1,41.8,29.96,WSW,246,0.0,0.0,85,0.00,,,0.00,Wunderground v.1.15,2013-05-19 08:15:00,
2013-05-19 04:35:00,44.7,41.1,29.96,NNW,336,0.0,0.0,87,0.00,,,0.00,Wunderground v.1.15,2013-05-19 08:35:00,
2013-05-19 04:45:00,44.7,41.7,29.96,NNW,336,0.0,0.0,89,0.00,,,0.00,Wunderground v.1.15,2013-05-19 08:45:00,
2013-05-19 04:55:00,44.9,41.6,29.96,NNW,336,0.0,0.0,88,0.00,,,0.00,Wunderground v.1.15,2013-05-19 08:55:00,
2013-05-19 05:00:00,44.9,41.6,29.96,NNW,336,0.0,2.0,88,0.00,,,0.00,Wunderground v.1.15,2013-05-19 09:00:00,
2013-05-19 05:05:00,44.4,41.1,29.97,NNW,336,1.0,2.0,88,0.00,,,0.00,Wunderground v.1.15,2013-05-19 09:05:00,
2013-05-19 05:20:00,44.3,41.6,29.97,NNW,336,0.0,0.0,90,0.00,,,0.00,Wunderground v.1.15,2013-05-19 09:20:00,
2013-05-19 05:25:00,44.6,41.6,29.97,NNW,336,0.0,0.0,89,0.00,,,0.00,Wunderground v.1.15,2013-05-19 09:25:00,
2013-05-19 05:30:00,44.5,41.5,29.97,NNW,336,0.0,0.0,89,0.00,,,0.00,Wunderground v.1.15,2013-05-19 09:30:00,
2013-05-19 05:55:00,44.7,41.7,29.98,NNW,336,0.0,0.0,89,0.00,,,0.00,Wunderground v.1.15,2013-05-19 09:55:00,
2013-05-19 06:00:00,44.9,41.9,29.98,NNW,336,0.0,0.0,89,0.00,,,0.00,Wunderground v.1.15,2013-05-19 10:00:00,
2013-05-19 06:10:00,45.4,42.6,29.98,NNW,336,0.0,0.0,90,0.00,,,0.00,Wunderground v.1.15,2013-05-19 10:10:00,
2013-05-19 06:15:00,46.0,43.2,29.98,NNW,336,0.0,0.0,90,0.00,,,0.00,Wunderground v.1.15,2013-05-19 10:15:00,
2013-05-19 06:30:00,46.5,43.1,29.98,NNW,336,0.0,0.0,88,0.00,,,0.00,Wunderground v.1.15,2013-05-19 10:30:00,
2013-05-19 06:35:00,46.7,43.6,29.98,NNW,336,0.0,0.0,89,0.00,,,0.00,Wunderground v.1.15,2013-05-19 10:35:00,
2013-05-19 06:40:00,47.0,43.9,29.98,NNW,336,0.0,0.0,89,0.00,,,0.00,Wunderground v.1.15,2013-05-19 10:40:00,
2013-05-19 07:00:00,48.0,44.3,29.97,NNW,336,0.0,0.0,87,0.00,,,0.00,Wunderground v.1.15,2013-05-19 11:00:00,
2013-05-19 07:05:00,48.2,44.5,29.97,NNW,336,0.0,0.0,87,0.00,,,0.00,Wunderground v.1.15,2013-05-19 11:05:00,
2013-05-19 07:15:00,48.6,44.6,29.98,NNW,336,0.0,0.0,86,0.00,,,0.00,Wunderground v.1.15,2013-05-19 11:15:00,
2013-05-19 07:20:00,49.1,45.4,29.98,NNW,336,0.0,0.0,87,0.00,,,0.00,Wunderground v.1.15,2013-05-19 11:20:00,
2013-05-19 07:30:00,49.5,45.2,29.98,ESE,112,0.0,0.0,85,0.00,,,0.00,Wunderground v.1.15,2013-05-19 11:30:00,
2013-05-19 07:40:00,49.9,45.6,29.98,ESE,112,0.0,1.0,85,0.00,,,0.00,Wunderground v.1.15,2013-05-19 11:40:00,
2013-05-19 07:45:00,50.9,46.6,29.97,ESE,112,0.0,1.0,85,0.00,,,0.00,Wunderground v.1.15,2013-05-19 11:45:00,
2013-05-19 07:50:00,51.9,46.3,29.97,ESE,112,0.0,0.0,81,0.00,,,0.00,Wunderground v.1.15,2013-05-19 11:50:00,
2013-05-19 07:55:00,52.8,47.5,29.97,East,91,0.0,0.0,82,0.00,,,0.00,Wunderground v.1.15,2013-05-19 11:55:00,
2013-05-19 08:05:00,53.8,47.4,29.97,ESE,107,1.0,1.0,79,0.00,,,0.00,Wunderground v.1.15,2013-05-19 12:05:00,
2013-05-19 08:15:00,54.4,46.3,29.97,SSW,192,1.0,1.0,74,0.00,,,0.00,Wunderground v.1.15,2013-05-19 12:15:00,
2013-05-19 08:25:00,55.3,46.8,29.98,East,82,1.0,1.0,73,0.00,,,0.00,Wunderground v.1.15,2013-05-19 12:25:00,
2013-05-19 08:35:00,55.9,48.1,29.97,ESE,110,1.0,2.0,75,0.00,,,0.00,Wunderground v.1.15,2013-05-19 12:35:00,
2013-05-19 08:45:00,55.4,46.9,29.97,South,184,2.0,2.0,73,0.00,,,0.00,Wunderground v.1.15,2013-05-19 12:45:00,
2013-05-19 08:55:00,55.5,47.3,29.97,South,190,1.0,1.0,74,0.00,,,0.00,Wunderground v.1.15,2013-05-19 12:55:00,
2013-05-19 09:05:00,56.4,48.2,29.97,South,187,1.0,3.0,74,0.00,,,0.00,Wunderground v.1.15,2013-05-19 13:05:00,
2013-05-19 09:15:00,57.4,48.1,29.97,South,178,1.0,3.0,71,0.00,,,0.00,Wunderground v.1.15,2013-05-19 13:15:00,
2013-05-19 09:25:00,57.4,48.1,29.97,SSW,205,2.0,2.0,71,0.00,,,0.00,Wunderground v.1.15,2013-05-19 13:25:00,
2013-05-19 09:35:00,58.3,48.2,29.97,SSW,207,2.0,2.0,69,0.00,,,0.00,Wunderground v.1.15,2013-05-19 13:35:00,
2013-05-19 09:45:00,58.7,50.8,29.97,SSE,150,2.0,2.0,75,0.00,,,0.00,Wunderground v.1.15,2013-05-19 13:45:00,
2013-05-19 09:50:00,59.3,49.1,29.97,South,169,1.0,2.0,69,0.00,,,0.00,Wunderground v.1.15,2013-05-19 13:50:00,
2013-05-19 10:00:00,59.5,49.7,29.97,South,190,2.0,4.0,70,0.00,,,0.00,Wunderground v.1.15,2013-05-19 14:00:00,
2013-05-19 10:15:00,61.1,49.2,29.96,East,86,2.0,2.0,65,0.00,,,0.00,Wunderground v.1.15,2013-05-19 14:15:00,
2013-05-19 10:20:00,61.5,50.0,29.96,ESE,111,2.0,2.0,66,0.00,,,0.00,Wunderground v.1.15,2013-05-19 14:20:00,
2013-05-19 10:25:00,61.6,50.9,29.96,ESE,115,2.0,2.0,68,0.00,,,0.00,Wunderground v.1.15,2013-05-19 14:25:00,
2013-05-19 10:35:00,62.3,51.6,29.96,South,187,2.0,3.0,68,0.00,,,0.00,Wunderground v.1.15,2013-05-19 14:35:00,
2013-05-19 10:55:00,62.5,50.2,29.96,SE,130,3.0,3.0,64,0.00,,,0.00,Wunderground v.1.15,2013-05-19 14:55:00,
2013-05-19 11:10:00,64.0,50.7,29.96,SE,124,1.0,1.0,62,0.00,,,0.00,Wunderground v.1.15,2013-05-19 15:10:00,
2013-05-19 11:15:00,64.1,51.7,29.96,ESE,113,2.0,2.0,64,0.00,,,0.00,Wunderground v.1.15,2013-05-19 15:15:00,
2013-05-19 11:20:00,63.9,50.6,29.96,SSW,196,2.0,3.0,62,0.00,,,0.00,Wunderground v.1.15,2013-05-19 15:20:00,
2013-05-19 11:25:00,64.3,52.3,29.96,SW,231,2.0,3.0,65,0.00,,,0.00,Wunderground v.1.15,2013-05-19 15:25:00,
2013-05-19 11:30:00,64.7,51.4,29.95,South,188,2.0,5.0,62,0.00,,,0.00,Wunderground v.1.15,2013-05-19 15:30:00,
2013-05-19 11:45:00,63.7,51.3,29.95,SE,136,4.0,4.0,64,0.00,,,0.00,Wunderground v.1.15,2013-05-19 15:45:00,
2013-05-19 11:55:00,63.7,51.7,29.95,ESE,113,3.0,3.0,65,0.00,,,0.00,Wunderground v.1.15,2013-05-19 15:55:00,
2013-05-19 12:05:00,64.4,53.2,29.95,NNE,17,2.0,2.0,67,0.00,,,0.00,Wunderground v.1.15,2013-05-19 16:05:00,
2013-05-19 12:15:00,63.9,48.8,29.95,South,180,5.0,6.0,58,0.00,,,0.00,Wunderground v.1.15,2013-05-19 16:15:00,
2013-05-19 12:20:00,63.6,49.5,29.94,South,189,6.0,6.0,60,0.00,,,0.00,Wunderground v.1.15,2013-05-19 16:20:00,
2013-05-19 12:35:00,63.7,48.6,29.94,SSE,167,5.0,5.0,58,0.00,,,0.00,Wunderground v.1.15,2013-05-19 16:35:00,
2013-05-19 12:45:00,63.6,49.0,29.94,SW,221,5.0,5.0,59,0.00,,,0.00,Wunderground v.1.15,2013-05-19 16:45:00,
2013-05-19 13:05:00,63.7,50.9,29.93,SE,139,3.0,3.0,63,0.00,,,0.00,Wunderground v.1.15,2013-05-19 17:05:00,
2013-05-19 13:15:00,63.9,48.4,29.92,SE,127,5.0,5.0,57,0.00,,,0.00,Wunderground v.1.15,2013-05-19 17:15:00,
2013-05-19 13:25:00,64.6,49.5,29.92,South,188,4.0,4.0,58,0.00,,,0.00,Wunderground v.1.15,2013-05-19 17:25:00,
2013-05-19 13:35:00,65.4,51.1,29.92,ESE,111,4.0,4.0,60,0.00,,,0.00,Wunderground v.1.15,2013-05-19 17:35:00,
2013-05-19 13:45:00,64.6,48.1,29.91,South,184,4.0,9.0,55,0.00,,,0.00,Wunderground v.1.15,2013-05-19 17:45:00,
2013-05-19 13:50:00,64.4,48.8,29.91,SSW,213,5.0,9.0,57,0.00,,,0.00,Wunderground v.1.15,2013-05-19 17:50:00,
2013-05-19 14:05:00,65.3,49.7,29.90,South,175,3.0,5.0,57,0.00,,,0.00,Wunderground v.1.15,2013-05-19 18:05:00,
2013-05-19 14:15:00,66.3,50.1,29.90,ESE,106,3.0,7.0,56,0.00,,,0.00,Wunderground v.1.15,2013-05-19 18:15:00,
2013-05-19 14:20:00,66.1,50.4,29.90,East,91,3.0,7.0,57,0.00,,,0.00,Wunderground v.1.15,2013-05-19 18:20:00,
2013-05-19 14:25:00,65.1,49.0,29.90,South,184,3.0,3.0,56,0.00,,,0.00,Wunderground v.1.15,2013-05-19 18:25:00,
2013-05-19 14:35:00,64.4,49.3,29.90,South,170,3.0,4.0,58,0.00,,,0.00,Wunderground v.1.15,2013-05-19 18:35:00,
2013-05-19 14:45:00,64.3,48.7,29.90,SE,128,3.0,3.0,57,0.00,,,0.00,Wunderground v.1.15,2013-05-19 18:45:00,
2013-05-19 14:55:00,64.0,49.4,29.89,SE,143,3.0,3.0,59,0.00,,,0.00,Wunderground v.1.15,2013-05-19 18:55:00,
2013-05-19 15:00:00,63.9,48.8,29.89,SSW,193,3.0,3.0,58,0.00,,,0.00,Wunderground v.1.15,2013-05-19 19:00:00,
2013-05-19 15:05:00,64.0,50.3,29.89,ESE,109,2.0,3.0,61,0.00,,,0.00,Wunderground v.1.15,2013-05-19 19:05:00,
2013-05-19 15:15:00,64.0,50.3,29.89,SSW,203,2.0,4.0,61,0.00,,,0.00,Wunderground v.1.15,2013-05-19 19:15:00,
2013-05-19 15:25:00,63.8,50.1,29.89,SSW,206,4.0,4.0,61,0.00,,,0.00,Wunderground v.1.15,2013-05-19 19:25:00,
2013-05-19 15:30:00,63.8,48.3,29.89,SW,226,4.0,6.0,57,0.00,,,0.00,Wunderground v.1.15,2013-05-19 19:30:00,
2013-05-19 15:40:00,63.5,49.8,29.89,SSW,194,3.0,3.0,61,0.00,,,0.00,Wunderground v.1.15,2013-05-19 19:40:00,
2013-05-19 15:45:00,63.4,49.7,29.89,SSE,151,2.0,3.0,61,0.00,,,0.00,Wunderground v.1.15,2013-05-19 19:45:00,
2013-05-19 15:50:00,63.2,48.6,29.89,SSW,192,2.0,2.0,59,0.00,,,0.00,Wunderground v.1.15,2013-05-19 19:50:00,
2013-05-19 15:55:00,63.3,50.1,29.88,SSW,201,3.0,6.0,62,0.00,,,0.00,Wunderground v.1.15,2013-05-19 19:55:00,
2013-05-19 16:05:00,63.2,48.6,29.88,SSE,164,5.0,5.0,59,0.00,,,0.00,Wunderground v.1.15,2013-05-19 20:05:00,
2013-05-19 16:10:00,63.1,49.0,29.88,SSW,206,5.0,5.0,60,0.00,,,0.00,Wunderground v.1.15,2013-05-19 20:10:00,
2013-05-19 16:20:00,62.7,49.1,29.88,South,183,5.0,7.0,61,0.00,,,0.00,Wunderground v.1.15,2013-05-19 20:20:00,
2013-05-19 16:25:00,62.5,48.4,29.88,South,176,5.0,7.0,60,0.00,,,0.00,Wunderground v.1.15,2013-05-19 20:25:00,
2013-05-19 16:35:00,62.0,49.3,29.88,SW,229,5.0,8.0,63,0.00,,,0.00,Wunderground v.1.15,2013-05-19 20:35:00,
2013-05-19 16:45:00,61.7,49.0,29.88,SSW,197,5.0,5.0,63,0.00,,,0.00,Wunderground v.1.15,2013-05-19 20:45:00,
2013-05-19 16:55:00,60.9,50.7,29.88,South,186,6.0,6.0,69,0.00,,,0.00,Wunderground v.1.15,2013-05-19 20:55:00,
2013-05-19 17:05:00,59.0,51.8,29.88,SSW,208,4.0,7.0,77,0.00,,,0.01,Wunderground v.1.15,2013-05-19 21:05:00,
2013-05-19 17:15:00,56.9,51.8,29.88,SSW,192,6.0,6.0,83,0.11,,,0.03,Wunderground v.1.15,2013-05-19 21:15:00,
2013-05-19 17:40:00,56.1,52.3,29.88,SW,227,2.0,8.0,87,0.04,,,0.04,Wunderground v.1.15,2013-05-19 21:40:00,
2013-05-19 17:45:00,55.9,52.1,29.88,South,190,2.0,8.0,87,0.04,,,0.05,Wunderground v.1.15,2013-05-19 21:45:00,
2013-05-19 17:55:00,55.7,52.5,29.88,South,181,2.0,2.0,89,0.07,,,0.06,Wunderground v.1.15,2013-05-19 21:55:00,
2013-05-19 18:05:00,55.4,52.5,29.88,South,175,1.0,1.0,90,0.08,,,0.07,Wunderground v.1.15,2013-05-19 22:05:00,
2013-05-19 18:15:00,55.1,52.5,29.88,SSE,162,1.0,1.0,91,0.04,,,0.07,Wunderground v.1.15,2013-05-19 22:15:00,
2013-05-19 18:25:00,54.9,52.6,29.88,South,189,1.0,2.0,92,0.00,,,0.08,Wunderground v.1.15,2013-05-19 22:25:00,
2013-05-19 18:35:00,54.5,52.2,29.87,South,180,3.0,3.0,92,0.05,,,0.09,Wunderground v.1.15,2013-05-19 22:35:00,
2013-05-19 18:40:00,54.4,52.1,29.87,South,185,2.0,3.0,92,0.05,,,0.09,Wunderground v.1.15,2013-05-19 22:40:00,
2013-05-19 18:55:00,54.1,52.1,29.87,South,191,3.0,3.0,93,0.00,,,0.10,Wunderground v.1.15,2013-05-19 22:55:00,
2013-05-19 19:15:00,54.0,52.3,29.88,SE,134,0.0,0.0,94,0.04,,,0.11,Wunderground v.1.15,2013-05-19 23:15:00,
2013-05-19 19:25:00,53.9,52.2,29.88,South,187,1.0,2.0,94,0.00,,,0.11,Wunderground v.1.15,2013-05-19 23:25:00,
2013-05-19 19:40:00,53.6,51.9,29.88,South,176,2.0,2.0,94,0.00,,,0.12,Wunderground v.1.15,2013-05-19 23:40:00,
2013-05-19 19:45:00,53.4,51.7,29.88,SSW,194,1.0,3.0,94,0.04,,,0.13,Wunderground v.1.15,2013-05-19 23:45:00,
2013-05-19 19:50:00,53.2,51.5,29.88,SE,138,1.0,1.0,94,0.04,,,0.13,Wunderground v.1.15,2013-05-19 23:50:00,
2013-05-19 20:00:00,53.0,51.3,29.87,SSE,161,2.0,2.0,94,0.04,,,0.13,Wunderground v.1.15,2013-05-20 00:00:00,
2013-05-19 20:05:00,52.8,51.1,29.87,South,187,2.0,2.0,94,0.00,,,0.13,Wunderground v.1.15,2013-05-20 00:05:00,
2013-05-19 20:15:00,52.5,50.8,29.87,SSE,166,1.0,1.0,94,0.00,,,0.14,Wunderground v.1.15,2013-05-20 00:15:00,
2013-05-19 20:25:00,52.4,50.7,29.87,SSE,161,1.0,1.0,94,0.00,,,0.14,Wunderground v.1.15,2013-05-20 00:25:00,
2013-05-19 20:35:00,52.2,50.5,29.87,SSW,208,2.0,3.0,94,0.00,,,0.15,Wunderground v.1.15,2013-05-20 00:35:00,
2013-05-19 20:45:00,52.2,50.8,29.87,SSE,150,3.0,3.0,95,0.00,,,0.15,Wunderground v.1.15,2013-05-20 00:45:00,
2013-05-19 20:55:00,52.2,50.8,29.87,SSW,202,4.0,4.0,95,0.00,,,0.16,Wunderground v.1.15,2013-05-20 00:55:00,
2013-05-19 21:00:00,52.2,50.8,29.87,South,173,4.0,4.0,95,0.08,,,0.17,Wunderground v.1.15,2013-05-20 01:00:00,
2013-05-19 21:10:00,52.3,50.9,29.87,SSW,199,4.0,4.0,95,0.05,,,0.17,Wunderground v.1.15,2013-05-20 01:10:00,
2013-05-19 21:15:00,52.3,50.9,29.87,SSW,192,5.0,5.0,95,0.04,,,0.18,Wunderground v.1.15,2013-05-20 01:15:00,
2013-05-19 21:20:00,52.3,50.9,29.86,South,172,5.0,5.0,95,0.04,,,0.18,Wunderground v.1.15,2013-05-20 01:20:00,
2013-05-19 21:35:00,52.3,50.9,29.87,SSW,192,4.0,5.0,95,0.05,,,0.19,Wunderground v.1.15,2013-05-20 01:35:00,
2013-05-19 21:45:00,52.3,50.9,29.87,South,175,3.0,7.0,95,0.04,,,0.20,Wunderground v.1.15,2013-05-20 01:45:00,
2013-05-19 21:50:00,52.3,50.9,29.86,South,186,4.0,9.0,95,0.04,,,0.20,Wunderground v.1.15,2013-05-20 01:50:00,
2013-05-19 21:55:00,52.4,51.0,29.86,SSE,153,4.0,4.0,95,0.04,,,0.21,Wunderground v.1.15,2013-05-20 01:55:00,
2013-05-19 22:05:00,52.3,50.9,29.86,SSW,204,5.0,6.0,95,0.06,,,0.22,Wunderground v.1.15,2013-05-20 02:05:00,
2013-05-19 22:10:00,52.3,50.9,29.85,South,177,5.0,8.0,95,0.06,,,0.22,Wunderground v.1.15,2013-05-20 02:10:00,
2013-05-19 22:15:00,52.3,50.9,29.85,South,178,5.0,5.0,95,0.06,,,0.23,Wunderground v.1.15,2013-05-20 02:15:00,
2013-05-19 22:20:00,52.2,50.8,29.85,SE,139,5.0,5.0,95,0.06,,,0.23,Wunderground v.1.15,2013-05-20 02:20:00,
2013-05-19 22:35:00,52.2,51.1,29.84,South,186,3.0,4.0,96,0.05,,,0.24,Wunderground v.1.15,2013-05-20 02:35:00,
2013-05-19 22:45:00,52.1,50.7,29.84,SW,233,4.0,4.0,95,0.04,,,0.25,Wunderground v.1.15,2013-05-20 02:45:00,
2013-05-19 22:55:00,51.9,50.5,29.84,South,180,4.0,5.0,95,0.00,,,0.25,Wunderground v.1.15,2013-05-20 02:55:00,
2013-05-19 23:05:00,51.9,50.5,29.83,SSW,200,4.0,4.0,95,0.00,,,0.25,Wunderground v.1.15,2013-05-20 03:05:00,
2013-05-19 23:10:00,51.8,50.4,29.83,SW,227,4.0,6.0,95,0.00,,,0.26,Wunderground v.1.15,2013-05-20 03:10:00,
2013-05-19 23:20:00,51.9,50.5,29.83,South,180,3.0,4.0,95,0.00,,,0.26,Wunderground v.1.15,2013-05-20 03:20:00,
2013-05-19 23:35:00,51.9,50.5,29.82,SSE,148,5.0,5.0,95,0.00,,,0.26,Wunderground v.1.15,2013-05-20 03:35:00,
2013-05-19 23:40:00,52.0,50.6,29.82,South,186,5.0,5.0,95,0.00,,,0.26,Wunderground v.1.15,2013-05-20 03:40:00,
2013-05-19 23:50:00,52.1,51.0,29.81,South,175,5.0,5.0,96,0.00,,,0.26,Wunderground v.1.15,2013-05-20 03:50:00,